createdAt,value
2019-02-26T00:02:26.078Z,50.10
2019-02-26T00:04:58.610Z,50.65
2019-02-26T00:07:30.441Z,49.88
2019-02-26T00:10:04.027Z,55.90
2019-02-26T00:12:35.494Z,45.38
2019-02-26T00:15:09.392Z,45.23
2019-02-26T00:17:43.015Z,50.88
2019-02-26T00:20:13.298Z,49.50
2019-02-26T00:22:45.780Z,48.40
2019-02-26T00:25:29.551Z,46.63
2019-02-26T00:27:59.881Z,49.85
2019-02-26T00:30:31.216Z,48.50
2019-02-26T00:33:02.795Z,49.40
2019-02-26T00:35:41.715Z,48.70
2019-02-26T00:38:13.410Z,53.20
2019-02-26T00:40:44.329Z,51.90
2019-02-26T00:43:14.853Z,50.48
2019-02-26T00:45:45.211Z,47.05
2019-02-26T00:48:15.545Z,50.40
2019-02-26T00:50:46.423Z,56.42
2019-02-26T00:53:19.139Z,51.00
2019-02-26T00:55:48.803Z,51.83
2019-02-26T00:58:19.393Z,47.58
2019-02-26T01:00:59.091Z,50.08
2019-02-26T01:03:29.411Z,51.05
2019-02-26T01:06:01.439Z,52.45
2019-02-26T01:08:31.759Z,47.78
2019-02-26T01:11:03.785Z,48.50
2019-02-26T01:13:33.995Z,50.05
2019-02-26T01:16:04.427Z,47.53
2019-02-26T01:18:34.817Z,48.17
2019-02-26T01:21:05.096Z,48.08
2019-02-26T01:23:35.355Z,52.60
2019-02-26T01:26:12.098Z,48.00
2019-02-26T01:28:44.134Z,52.98
2019-02-26T01:31:13.981Z,52.13
2019-02-26T01:33:46.751Z,52.53
2019-02-26T01:36:19.149Z,55.65
2019-02-26T01:38:51.049Z,51.10
2019-02-26T01:41:23.278Z,54.93
2019-02-26T01:43:53.484Z,50.85
2019-02-26T01:46:24.018Z,55.58
2019-02-26T01:48:55.215Z,53.20
2019-02-26T01:51:28.467Z,51.35
2019-02-26T01:53:58.453Z,47.67
2019-02-26T01:56:28.714Z,52.62
2019-02-26T01:59:02.116Z,49.05
2019-02-26T02:01:31.133Z,55.92
2019-02-26T02:04:01.425Z,52.13
2019-02-26T02:06:33.122Z,59.15
2019-02-26T02:09:03.807Z,52.30
2019-02-26T02:11:37.609Z,52.98
2019-02-26T02:14:08.225Z,57.00
2019-02-26T02:16:40.416Z,59.03
2019-02-26T02:19:15.524Z,55.35
2019-02-26T02:21:42.615Z,54.85
2019-02-26T02:24:15.064Z,62.93
2019-02-26T02:26:47.460Z,64.25
2019-02-26T02:29:17.315Z,60.75
2019-02-26T02:31:48.559Z,57.05
2019-02-26T02:34:18.863Z,61.23
2019-02-26T02:36:49.061Z,60.05
2019-02-26T02:39:20.870Z,59.03
2019-02-26T02:41:54.728Z,61.55
2019-02-26T02:44:25.504Z,66.37
2019-02-26T02:46:55.609Z,67.67
2019-02-26T02:49:25.925Z,61.48
2019-02-26T02:51:56.264Z,60.05
2019-02-26T02:54:26.618Z,60.83
2019-02-26T02:56:59.808Z,60.38
2019-02-26T02:59:30.995Z,61.53
2019-02-26T03:02:00.670Z,66.22
2019-02-26T03:04:34.409Z,59.65
2019-02-26T03:07:04.433Z,65.45
2019-02-26T03:09:37.745Z,61.08
2019-02-26T03:12:19.236Z,64.95
2019-02-26T03:14:49.846Z,63.73
2019-02-26T03:17:20.243Z,66.17
2019-02-26T03:19:50.736Z,63.40
2019-02-26T03:22:21.713Z,68.40
2019-02-26T03:24:54.388Z,60.60
2019-02-26T03:27:27.806Z,67.50
2019-02-26T03:29:58.294Z,66.87
2019-02-26T03:32:28.086Z,64.87
2019-02-26T03:35:02.162Z,59.90
2019-02-26T03:37:31.409Z,62.88
2019-02-26T03:40:03.707Z,64.60
2019-02-26T03:42:36.472Z,64.67
2019-02-26T03:45:09.352Z,59.80
2019-02-26T03:50:13.763Z,65.40
2019-02-26T03:52:45.082Z,69.07
2019-02-26T03:55:18.281Z,66.77
2019-02-26T03:57:50.389Z,66.22
2019-02-26T04:00:20.316Z,72.55
2019-02-26T04:02:51.968Z,63.65
2019-02-26T04:05:22.453Z,70.35
2019-02-26T04:07:58.909Z,66.37
2019-02-26T04:10:28.222Z,66.87
2019-02-26T04:12:59.529Z,65.55
2019-02-26T04:15:35.131Z,70.03
2019-02-26T04:18:03.662Z,66.28
2019-02-26T04:20:33.988Z,67.50
2019-02-26T04:23:04.565Z,59.85
2019-02-26T04:25:52.089Z,67.20
2019-02-26T04:28:27.228Z,65.20
2019-02-26T04:30:59.447Z,68.28
2019-02-26T04:34:06.191Z,67.42
2019-02-26T04:37:04.645Z,63.60
2019-02-26T04:39:47.689Z,66.87
2019-02-26T04:42:40.953Z,64.65
2019-02-26T04:45:32.942Z,66.02
2019-02-26T04:48:09.146Z,62.03
2019-02-26T04:50:41.379Z,65.17
2019-02-26T04:53:11.340Z,70.52
2019-02-26T04:55:44.712Z,71.05
2019-02-26T04:58:17.036Z,70.78
2019-02-26T05:00:46.144Z,72.82
2019-02-26T05:03:20.086Z,82.53
2019-02-26T05:05:53.765Z,70.70
2019-02-26T05:08:21.515Z,64.77
2019-02-26T05:10:52.535Z,65.95
2019-02-26T05:13:25.248Z,70.03
2019-02-26T05:15:55.625Z,67.05
2019-02-26T05:18:26.537Z,69.90
2019-02-26T05:20:59.380Z,72.25
2019-02-26T05:23:33.019Z,63.50
2019-02-26T05:26:11.003Z,74.15
2019-02-26T05:28:49.718Z,60.45
2019-02-26T05:31:21.401Z,60.80
2019-02-26T05:33:55.394Z,66.47
2019-02-26T05:36:28.230Z,66.80
2019-02-26T05:39:02.293Z,66.20
2019-02-26T05:41:34.111Z,63.93
2019-02-26T05:44:08.347Z,67.67
2019-02-26T05:46:37.339Z,64.65
2019-02-26T05:49:10.565Z,62.55
2019-02-26T05:51:39.501Z,64.77
2019-02-26T05:54:12.200Z,66.28
2019-02-26T05:56:43.587Z,62.65
2019-02-26T05:59:15.494Z,65.10
2019-02-26T06:01:46.530Z,68.00
2019-02-26T06:04:19.594Z,67.08
2019-02-26T06:06:51.069Z,61.20
2019-02-26T06:09:23.512Z,67.37
2019-02-26T06:11:53.104Z,62.73
2019-02-26T06:14:25.463Z,64.00
2019-02-26T06:16:55.911Z,60.55
2019-02-26T06:19:44.933Z,60.85
2019-02-26T06:22:20.186Z,58.65
2019-02-26T06:24:47.339Z,61.75
2019-02-26T06:27:19.570Z,62.43
2019-02-26T06:29:52.832Z,67.30
2019-02-26T06:32:21.379Z,67.50
2019-02-26T06:34:51.693Z,75.83
2019-02-26T06:37:23.734Z,66.15
2019-02-26T06:39:55.604Z,68.42
2019-02-26T06:42:26.118Z,72.75
2019-02-26T06:44:56.525Z,70.50
2019-02-26T06:47:29.276Z,68.78
2019-02-26T06:49:58.804Z,67.70
2019-02-26T06:52:29.959Z,71.37
2019-02-26T06:55:02.974Z,71.10
2019-02-26T06:57:32.852Z,71.40
2019-02-26T07:00:04.248Z,74.20
2019-02-26T07:02:35.359Z,73.83
2019-02-26T07:05:08.707Z,70.95
2019-02-26T07:07:38.980Z,84.55
2019-02-26T07:10:13.826Z,89.52
2019-02-26T07:12:45.524Z,87.20
2019-02-26T07:15:16.315Z,81.75
2019-02-26T07:17:46.731Z,75.80
2019-02-26T07:20:17.055Z,76.10
2019-02-26T07:22:49.754Z,73.75
2019-02-26T07:25:20.347Z,80.03
2019-02-26T07:27:51.394Z,71.65
2019-02-26T07:30:22.647Z,67.65
2019-02-26T07:32:52.965Z,67.85
2019-02-26T07:35:23.255Z,74.17
2019-02-26T07:37:54.617Z,102.32
2019-02-26T07:40:27.785Z,72.17
2019-02-26T07:42:57.425Z,124.12
2019-02-26T07:45:29.643Z,84.40
2019-02-26T07:48:01.020Z,69.95
2019-02-26T07:50:36.961Z,82.25
2019-02-26T07:53:03.372Z,79.22
2019-02-26T07:55:35.393Z,81.95
2019-02-26T07:58:06.208Z,71.30
2019-02-26T08:00:39.802Z,76.70
2019-02-26T08:03:10.571Z,86.80
2019-02-26T08:05:40.934Z,75.87
2019-02-26T08:08:12.070Z,80.38
2019-02-26T08:10:45.357Z,86.50
2019-02-26T08:13:15.041Z,87.10
2019-02-26T08:15:47.117Z,82.40
2019-02-26T08:18:17.436Z,91.28
2019-02-26T08:20:47.798Z,90.35
2019-02-26T08:23:19.870Z,100.02
2019-02-26T08:26:06.828Z,76.40
2019-02-26T08:28:38.870Z,80.92
2019-02-26T08:31:11.202Z,82.37
2019-02-26T08:33:40.884Z,85.22
2019-02-26T08:36:13.583Z,84.97
2019-02-26T08:38:43.116Z,77.53
2019-02-26T08:41:13.456Z,83.22
2019-02-26T08:43:46.345Z,81.78
2019-02-26T08:46:17.161Z,78.20
2019-02-26T08:48:48.371Z,83.87
2019-02-26T08:51:21.483Z,84.60
2019-02-26T08:53:51.996Z,75.92
2019-02-26T08:56:23.942Z,74.47
2019-02-26T08:58:55.278Z,83.05
2019-02-26T09:01:25.592Z,77.27
2019-02-26T09:03:56.639Z,93.55
2019-02-26T09:06:27.741Z,86.72
2019-02-26T09:08:59.653Z,79.27
2019-02-26T09:11:33.777Z,79.58
2019-02-26T09:14:04.749Z,84.75
2019-02-26T09:16:35.455Z,84.92
2019-02-26T09:19:05.761Z,90.32
2019-02-26T09:21:36.890Z,80.00
2019-02-26T09:24:07.995Z,85.45
2019-02-26T09:26:38.291Z,78.15
2019-02-26T09:29:10.322Z,87.88
2019-02-26T09:31:40.544Z,80.28
2019-02-26T09:34:10.852Z,76.10
2019-02-26T09:36:41.131Z,77.60
2019-02-26T09:39:13.109Z,75.90
2019-02-26T09:41:45.448Z,81.53
2019-02-26T09:44:15.322Z,79.15
2019-02-26T09:46:45.522Z,80.77
2019-02-26T09:49:15.872Z,93.72
2019-02-26T09:51:46.172Z,83.05
2019-02-26T09:54:17.772Z,83.92
2019-02-26T09:56:48.516Z,87.90
2019-02-26T09:59:18.790Z,79.75
2019-02-26T10:01:49.090Z,82.08
2019-02-26T10:04:20.140Z,81.97
2019-02-26T10:06:51.345Z,85.95
2019-02-26T10:09:21.932Z,80.55
2019-02-26T10:11:52.437Z,89.32
2019-02-26T10:14:22.735Z,76.70
2019-02-26T10:16:55.054Z,83.55
2019-02-26T10:19:25.906Z,80.87
2019-02-26T10:21:57.296Z,88.95
2019-02-26T10:24:30.183Z,79.05
2019-02-26T10:27:03.025Z,86.20
2019-02-26T10:29:32.453Z,74.47
2019-02-26T10:32:03.651Z,78.87
2019-02-26T10:34:33.940Z,81.12
2019-02-26T10:37:04.415Z,123.40
2019-02-26T10:39:34.673Z,79.53
2019-02-26T10:42:04.973Z,77.58
2019-02-26T10:44:35.399Z,82.02
2019-02-26T10:47:07.753Z,81.57
2019-02-26T10:49:38.390Z,85.05
2019-02-26T10:52:10.918Z,102.02
2019-02-26T10:54:43.446Z,74.25
2019-02-26T10:57:14.499Z,75.03
2019-02-26T10:59:45.119Z,78.15
2019-02-26T11:02:17.783Z,72.32
2019-02-26T11:04:50.422Z,71.33
2019-02-26T11:07:20.674Z,67.60
2019-02-26T11:09:53.042Z,69.35
2019-02-26T11:12:25.176Z,76.72
2019-02-26T11:15:01.584Z,75.80
2019-02-26T11:17:31.727Z,69.00
2019-02-26T11:20:04.485Z,73.83
2019-02-26T11:22:35.241Z,66.72
2019-02-26T11:25:08.731Z,67.15
2019-02-26T11:27:40.895Z,73.15
2019-02-26T11:30:23.838Z,68.17
2019-02-26T11:32:58.721Z,65.45
2019-02-26T11:35:27.406Z,63.00
2019-02-26T11:37:58.284Z,63.85
2019-02-26T11:40:30.687Z,66.07
2019-02-26T11:43:10.906Z,61.50
2019-02-26T11:45:35.158Z,60.83
2019-02-26T11:48:06.628Z,61.85
2019-02-26T11:50:38.968Z,66.10
2019-02-26T11:53:10.015Z,64.95
2019-02-26T11:55:40.403Z,66.17
2019-02-26T11:58:13.061Z,60.90
2019-02-26T12:00:50.787Z,68.15
2019-02-26T12:03:24.973Z,62.20
2019-02-26T12:05:55.889Z,61.92
2019-02-26T12:08:25.889Z,64.47
2019-02-26T12:11:01.177Z,62.75
2019-02-26T12:13:28.306Z,61.02
2019-02-26T12:15:59.163Z,58.25
2019-02-26T12:18:29.503Z,60.70
2019-02-26T12:21:00.222Z,58.68
2019-02-26T12:23:31.854Z,57.50
2019-02-26T12:26:03.789Z,72.72
2019-02-26T12:28:35.903Z,57.95
2019-02-26T12:31:08.086Z,60.65
2019-02-26T12:33:37.855Z,59.08
2019-02-26T12:36:09.802Z,51.37
2019-02-26T12:38:40.023Z,60.65
2019-02-26T12:41:12.209Z,61.00
2019-02-26T12:43:43.975Z,59.88
2019-02-26T12:46:14.125Z,56.83
2019-02-26T12:48:46.951Z,53.60
2019-02-26T12:51:16.380Z,60.25
2019-02-26T12:53:50.079Z,57.38
2019-02-26T12:56:20.833Z,56.55
2019-02-26T12:58:54.570Z,73.92
2019-02-26T13:01:23.986Z,62.73
2019-02-26T13:03:55.100Z,58.73
2019-02-26T13:06:25.803Z,53.63
2019-02-26T13:08:56.118Z,53.10
2019-02-26T13:11:26.389Z,68.90
2019-02-26T13:13:57.911Z,59.20
2019-02-26T13:16:28.223Z,53.58
2019-02-26T13:19:03.769Z,58.38
2019-02-26T13:21:30.451Z,49.30
2019-02-26T13:24:11.444Z,49.05
2019-02-26T13:26:36.204Z,49.63
2019-02-26T13:29:04.554Z,52.50
2019-02-26T13:31:41.705Z,47.50
2019-02-26T13:34:13.687Z,52.93
2019-02-26T13:36:39.706Z,52.58
2019-02-26T13:39:10.629Z,47.13
2019-02-26T13:41:41.244Z,47.05
2019-02-26T13:44:11.667Z,49.42
2019-02-26T13:46:42.077Z,59.03
2019-02-26T13:49:12.387Z,59.38
2019-02-26T13:51:42.689Z,63.23
2019-02-26T13:54:13.125Z,51.70
2019-02-26T13:56:43.380Z,64.58
2019-02-26T13:59:13.705Z,57.80
2019-02-26T14:01:44.101Z,61.60
2019-02-26T14:04:14.426Z,65.62
2019-02-26T14:06:44.903Z,58.98
2019-02-26T14:09:15.210Z,60.95
2019-02-26T14:11:45.569Z,55.10
2019-02-26T14:14:15.886Z,68.72
2019-02-26T14:16:46.334Z,59.58
2019-02-26T14:19:17.649Z,54.33
2019-02-26T14:21:47.927Z,53.52
2019-02-26T14:24:18.278Z,46.33
2019-02-26T14:26:48.604Z,44.05
2019-02-26T14:29:18.865Z,48.02
2019-02-26T14:31:50.882Z,47.30
2019-02-26T14:34:21.142Z,49.33
2019-02-26T14:36:53.633Z,42.83
2019-02-26T14:39:26.146Z,41.30
2019-02-26T14:41:56.440Z,44.98
2019-02-26T14:44:26.755Z,37.90
2019-02-26T14:46:57.008Z,42.30
2019-02-26T14:49:27.331Z,40.38
2019-02-26T14:51:57.608Z,41.80
2019-02-26T14:54:27.833Z,41.20
2019-02-26T14:56:58.106Z,35.40
2019-02-26T14:59:28.953Z,44.65
2019-02-26T15:02:00.905Z,44.00
2019-02-26T15:04:32.278Z,44.70
2019-02-26T15:07:02.533Z,41.98
2019-02-26T15:09:33.146Z,50.50
2019-02-26T15:12:06.871Z,40.80
2019-02-26T15:17:14.888Z,48.40
2019-02-26T15:19:49.583Z,42.85
2019-02-26T15:22:17.067Z,47.50
2019-02-26T15:24:47.473Z,40.30
2019-02-26T15:27:17.773Z,51.13
2019-02-26T15:29:50.792Z,40.50
2019-02-26T15:32:21.094Z,43.55
2019-02-26T15:34:51.498Z,45.38
2019-02-26T15:37:21.848Z,52.43
2019-02-26T15:39:52.221Z,52.45
2019-02-26T15:42:22.527Z,47.15
2019-02-26T15:44:52.720Z,47.90
2019-02-26T15:47:24.465Z,52.35
2019-02-26T15:49:54.753Z,56.25
2019-02-26T15:52:25.060Z,55.43
2019-02-26T15:54:57.658Z,62.73
2019-02-26T15:57:28.636Z,55.60
2019-02-26T16:00:00.431Z,53.75
2019-02-26T16:02:30.990Z,55.33
2019-02-26T16:05:01.270Z,63.33
2019-02-26T16:07:32.829Z,67.00
2019-02-26T16:10:03.180Z,67.78
2019-02-26T16:12:33.682Z,60.28
2019-02-26T16:15:08.178Z,61.58
2019-02-26T16:17:38.924Z,66.77
2019-02-26T16:20:14.839Z,68.28
2019-02-26T16:22:45.997Z,63.10
2019-02-26T16:25:16.615Z,67.30
2019-02-26T16:27:46.959Z,75.00
2019-02-26T16:30:19.902Z,74.12
2019-02-26T16:32:50.232Z,69.53
2019-02-26T16:35:24.712Z,65.85
2019-02-26T16:37:52.464Z,68.67
2019-02-26T16:40:22.764Z,69.50
2019-02-26T16:42:53.103Z,72.78
2019-02-26T16:45:27.348Z,76.70
2019-02-26T16:47:57.705Z,82.67
2019-02-26T16:50:32.405Z,75.42
2019-02-26T16:53:02.728Z,86.75
2019-02-26T16:55:33.317Z,90.97
2019-02-26T16:58:03.717Z,112.88
2019-02-26T17:00:34.020Z,129.40
2019-02-26T17:03:04.921Z,134.27
2019-02-26T17:05:35.198Z,114.35
2019-02-26T17:08:05.759Z,97.45
2019-02-26T17:10:35.959Z,92.35
2019-02-26T17:13:35.668Z,79.03
2019-02-26T17:16:07.036Z,82.45
2019-02-26T17:18:37.346Z,78.28
2019-02-26T17:21:07.625Z,87.95
2019-02-26T17:23:37.929Z,90.32
2019-02-26T17:26:08.231Z,86.72
2019-02-26T17:28:38.531Z,89.95
2019-02-26T17:31:08.930Z,89.42
2019-02-26T17:33:39.220Z,91.80
2019-02-26T17:36:09.509Z,85.20
2019-02-26T17:38:39.811Z,101.55
2019-02-26T17:41:12.247Z,102.90
2019-02-26T17:43:42.051Z,119.15
2019-02-26T17:46:12.321Z,127.05
2019-02-26T17:48:43.713Z,121.35
2019-02-26T17:51:14.251Z,110.45
2019-02-26T17:53:44.577Z,127.25
2019-02-26T17:56:14.764Z,128.30
2019-02-26T17:58:45.104Z,107.05
2019-02-26T18:01:15.398Z,118.70
2019-02-26T18:03:45.705Z,117.25
2019-02-26T18:06:15.969Z,101.80
2019-02-26T18:08:46.288Z,95.92
2019-02-26T18:11:16.553Z,112.77
2019-02-26T18:13:46.857Z,151.35
2019-02-26T18:16:17.134Z,138.20
2019-02-26T18:18:47.911Z,224.55
2019-02-26T18:21:18.167Z,212.57
2019-02-26T18:23:48.517Z,200.38
2019-02-26T18:26:18.812Z,150.05
2019-02-26T18:28:49.263Z,158.45
2019-02-26T18:31:26.290Z,138.52
2019-02-26T18:33:51.628Z,145.57
2019-02-26T18:36:21.967Z,181.55
2019-02-26T18:38:52.429Z,161.20
2019-02-26T18:41:22.672Z,176.15
2019-02-26T18:43:53.025Z,131.00
2019-02-26T18:46:23.516Z,122.50
2019-02-26T18:48:53.857Z,112.22
2019-02-26T18:51:24.131Z,110.52
2019-02-26T18:53:54.482Z,100.42
2019-02-26T18:56:24.770Z,103.40
2019-02-26T18:58:55.121Z,99.58
2019-02-26T19:01:25.444Z,114.35
2019-02-26T19:03:55.888Z,104.60
2019-02-26T19:06:27.005Z,110.45
2019-02-26T19:08:57.952Z,117.45
2019-02-26T19:11:28.274Z,115.05
2019-02-26T19:13:58.711Z,120.02
2019-02-26T19:16:29.040Z,112.32
2019-02-26T19:18:59.360Z,115.28
2019-02-26T19:21:29.679Z,115.42
2019-02-26T19:24:00.094Z,125.07
2019-02-26T19:26:48.451Z,127.15
2019-02-26T19:29:18.773Z,138.97
2019-02-26T19:31:50.135Z,119.02
2019-02-26T19:34:20.437Z,117.42
2019-02-26T19:36:50.787Z,116.57
2019-02-26T19:39:21.083Z,117.47
2019-02-26T19:41:51.362Z,112.45
2019-02-26T19:44:21.678Z,110.17
2019-02-26T19:46:51.907Z,110.75
2019-02-26T19:49:22.212Z,113.77
2019-02-26T19:51:52.572Z,105.45
2019-02-26T19:54:22.891Z,110.92
2019-02-26T19:56:54.698Z,108.75
2019-02-26T19:59:26.919Z,108.87
2019-02-26T20:01:59.046Z,110.50
2019-02-26T20:04:28.984Z,118.35
2019-02-26T20:07:00.418Z,112.80
2019-02-26T20:09:30.654Z,115.92
2019-02-26T20:12:01.034Z,132.72
2019-02-26T20:14:32.479Z,141.70
2019-02-26T20:17:11.603Z,145.25
2019-02-26T20:19:35.892Z,127.40
2019-02-26T20:22:06.239Z,122.95
2019-02-26T20:24:36.540Z,126.75
2019-02-26T20:27:06.865Z,124.07
2019-02-26T20:29:37.179Z,129.03
2019-02-26T20:32:07.444Z,132.87
2019-02-26T20:34:37.775Z,128.85
2019-02-26T20:37:09.590Z,139.77
2019-02-26T20:39:40.905Z,140.62
2019-02-26T20:42:11.811Z,139.35
2019-02-26T20:44:45.252Z,151.15
2019-02-26T20:47:14.049Z,127.58
2019-02-26T20:49:46.286Z,137.45
2019-02-26T20:52:16.272Z,125.02
2019-02-26T20:54:46.599Z,127.10
2019-02-26T20:57:17.856Z,121.60
2019-02-26T20:59:51.708Z,123.58
2019-02-26T21:02:20.060Z,135.40
2019-02-26T21:04:50.383Z,138.80
2019-02-26T21:07:21.789Z,137.72
2019-02-26T21:09:52.602Z,134.25
2019-02-26T21:12:23.918Z,134.65
2019-02-26T21:14:54.220Z,140.75
2019-02-26T21:17:26.552Z,143.93
2019-02-26T21:19:56.907Z,146.32
2019-02-26T21:22:27.147Z,145.07
2019-02-26T21:24:58.155Z,139.00
2019-02-26T21:27:28.756Z,138.90
2019-02-26T21:29:59.105Z,137.20
2019-02-26T21:32:29.377Z,140.75
2019-02-26T21:34:59.746Z,125.92
2019-02-26T21:37:32.674Z,130.67
2019-02-26T21:40:15.871Z,132.18
2019-02-26T21:42:46.570Z,128.78
2019-02-26T21:45:18.712Z,131.15
2019-02-26T21:47:49.426Z,131.30
2019-02-26T21:50:22.847Z,133.70
2019-02-26T21:52:59.762Z,129.27
2019-02-26T21:55:24.045Z,129.47
2019-02-26T22:00:38.709Z,139.32
2019-02-26T22:03:06.755Z,130.90
2019-02-26T22:05:37.926Z,139.00
2019-02-26T22:08:08.753Z,140.47
2019-02-26T22:10:42.511Z,137.85
2019-02-26T22:13:11.601Z,135.63
2019-02-26T22:15:44.580Z,140.12
2019-02-26T22:18:14.920Z,142.40
2019-02-26T22:20:45.264Z,152.68
2019-02-26T22:23:15.848Z,148.40
2019-02-26T22:25:49.740Z,147.02
2019-02-26T22:28:23.103Z,147.32
2019-02-26T22:30:55.908Z,141.05
2019-02-26T22:33:25.771Z,147.65
2019-02-26T22:35:56.975Z,148.20
2019-02-26T22:38:28.779Z,148.45
2019-02-26T22:40:59.975Z,141.47
2019-02-26T22:43:31.393Z,150.80
2019-02-26T22:46:01.809Z,139.35
2019-02-26T22:48:32.104Z,153.07
2019-02-26T22:51:02.304Z,141.82
2019-02-26T22:53:36.372Z,141.35
2019-02-26T22:56:04.588Z,150.80
2019-02-26T22:58:35.843Z,150.30
2019-02-26T23:01:13.330Z,146.75
2019-02-26T23:03:45.918Z,146.77
2019-02-26T23:06:16.850Z,146.90
2019-02-26T23:08:47.597Z,159.40
2019-02-26T23:11:17.870Z,161.28
2019-02-26T23:13:49.020Z,158.72
2019-02-26T23:16:19.752Z,155.27
2019-02-26T23:18:50.454Z,151.57
2019-02-26T23:21:21.686Z,163.18
2019-02-26T23:23:54.716Z,154.50
2019-02-26T23:26:25.021Z,157.67
2019-02-26T23:28:55.518Z,153.47
2019-02-26T23:31:27.011Z,156.50
2019-02-26T23:33:58.959Z,162.37
2019-02-26T23:36:29.321Z,157.62
2019-02-26T23:38:59.629Z,173.45
2019-02-26T23:41:30.792Z,147.05
2019-02-26T23:44:02.901Z,162.53
2019-02-26T23:46:33.189Z,169.68
2019-02-26T23:49:03.525Z,156.85
2019-02-26T23:51:33.730Z,169.32
2019-02-26T23:54:04.740Z,165.70
2019-02-26T23:56:35.980Z,168.10
2019-02-26T23:59:06.328Z,178.72
